sensor_id;sensor_type;location;lat;lon;timestamp;pressure;altitude;pressure_sealevel;temperature;humidity
70971;BME280;58632;51.718;19.446;2023-03-23T00:01:45;98919.58;;;8.50;100.00
70971;BME280;58632;51.718;19.446;2023-03-23T00:04:14;98914.55;;;8.53;100.00
70971;BME280;58632;51.718;19.446;2023-03-23T00:06:40;98916.21;;;8.56;100.00
70971;BME280;58632;51.718;19.446;2023-03-23T00:09:06;98913.56;;;8.58;100.00
70971;BME280;58632;51.718;19.446;2023-03-23T00:11:32;98918.60;;;8.59;100.00
70971;BME280;58632;51.718;19.446;2023-03-23T00:13:59;98915.23;;;8.60;100.00
70971;BME280;58632;51.718;19.446;2023-03-23T00:16:26;98912.63;;;8.64;100.00
70971;BME280;58632;51.718;19.446;2023-03-23T00:19:00;98917.39;;;8.68;100.00
70971;BME280;58632;51.718;19.446;2023-03-23T00:21:29;98917.05;;;8.71;100.00
70971;BME280;58632;51.718;19.446;2023-03-23T00:24:10;98915.91;;;8.75;100.00
70971;BME280;58632;51.718;19.446;2023-03-23T00:26:36;98916.50;;;8.81;100.00
70971;BME280;58632;51.718;19.446;2023-03-23T00:29:06;98914.74;;;8.86;100.00
70971;BME280;58632;51.718;19.446;2023-03-23T00:31:32;98915.43;;;8.89;100.00
70971;BME280;58632;51.718;19.446;2023-03-23T00:34:01;98916.97;;;8.93;100.00
70971;BME280;58632;51.718;19.446;2023-03-23T00:36:29;98914.22;;;8.95;100.00
70971;BME280;58632;51.718;19.446;2023-03-23T00:38:55;98914.91;;;8.95;100.00
70971;BME280;58632;51.718;19.446;2023-03-23T00:41:24;98915.98;;;8.95;100.00
70971;BME280;58632;51.718;19.446;2023-03-23T00:43:52;98912.21;;;8.94;100.00
70971;BME280;58632;51.718;19.446;2023-03-23T00:46:18;98914.48;;;8.91;100.00
70971;BME280;58632;51.718;19.446;2023-03-23T00:48:45;98915.71;;;8.91;100.00
70971;BME280;58632;51.718;19.446;2023-03-23T00:51:11;98917.48;;;8.90;100.00
70971;BME280;58632;51.718;19.446;2023-03-23T00:53:40;98912.27;;;8.90;100.00
70971;BME280;58632;51.718;19.446;2023-03-23T00:56:06;98913.69;;;8.94;100.00
70971;BME280;58632;51.718;19.446;2023-03-23T00:58:32;98911.94;;;8.97;100.00
70971;BME280;58632;51.718;19.446;2023-03-23T01:00:57;98909.88;;;8.98;100.00
70971;BME280;58632;51.718;19.446;2023-03-23T01:03:23;98903.63;;;9.00;100.00
70971;BME280;58632;51.718;19.446;2023-03-23T01:05:50;98905.70;;;9.01;100.00
70971;BME280;58632;51.718;19.446;2023-03-23T01:08:16;98905.15;;;9.03;100.00
70971;BME280;58632;51.718;19.446;2023-03-23T01:10:44;98902.80;;;9.02;100.00
70971;BME280;58632;51.718;19.446;2023-03-23T01:13:09;98894.21;;;9.00;100.00
70971;BME280;58632;51.718;19.446;2023-03-23T01:15:35;98896.98;;;9.01;100.00
70971;BME280;58632;51.718;19.446;2023-03-23T01:18:01;98893.55;;;8.99;100.00
70971;BME280;58632;51.718;19.446;2023-03-23T01:20:27;98891.94;;;8.96;100.00
70971;BME280;58632;51.718;19.446;2023-03-23T01:22:54;98891.05;;;8.90;100.00
70971;BME280;58632;51.718;19.446;2023-03-23T01:25:25;98891.15;;;8.83;100.00
70971;BME280;58632;51.718;19.446;2023-03-23T01:27:51;98891.60;;;8.78;100.00
70971;BME280;58632;51.718;19.446;2023-03-23T01:30:16;98895.65;;;8.74;100.00
70971;BME280;58632;51.718;19.446;2023-03-23T01:32:42;98892.38;;;8.70;100.00
70971;BME280;58632;51.718;19.446;2023-03-23T01:35:08;98892.59;;;8.67;100.00
70971;BME280;58632;51.718;19.446;2023-03-23T01:37:34;98893.77;;;8.66;100.00
70971;BME280;58632;51.718;19.446;2023-03-23T01:40:01;98898.68;;;8.66;100.00
70971;BME280;58632;51.718;19.446;2023-03-23T01:42:33;98897.69;;;8.66;100.00
70971;BME280;58632;51.718;19.446;2023-03-23T01:45:22;98900.17;;;8.68;100.00
70971;BME280;58632;51.718;19.446;2023-03-23T01:50:37;98888.39;;;8.76;100.00
70971;BME280;58632;51.718;19.446;2023-03-23T01:53:04;98887.45;;;8.80;100.00
70971;BME280;58632;51.718;19.446;2023-03-23T01:55:33;98884.94;;;8.81;100.00
70971;BME280;58632;51.718;19.446;2023-03-23T01:58:01;98879.27;;;8.82;100.00
70971;BME280;58632;51.718;19.446;2023-03-23T02:00:28;98881.34;;;8.81;100.00
70971;BME280;58632;51.718;19.446;2023-03-23T02:02:55;98884.09;;;8.78;100.00
70971;BME280;58632;51.718;19.446;2023-03-23T02:05:26;98885.50;;;8.74;100.00
70971;BME280;58632;51.718;19.446;2023-03-23T02:07:54;98885.81;;;8.68;100.00
70971;BME280;58632;51.718;19.446;2023-03-23T02:10:24;98883.02;;;8.62;100.00
70971;BME280;58632;51.718;19.446;2023-03-23T02:12:49;98879.67;;;8.56;100.00
70971;BME280;58632;51.718;19.446;2023-03-23T02:15:15;98879.30;;;8.53;100.00
70971;BME280;58632;51.718;19.446;2023-03-23T02:17:57;98878.95;;;8.49;100.00
70971;BME280;58632;51.718;19.446;2023-03-23T02:23:25;98886.73;;;8.47;100.00
70971;BME280;58632;51.718;19.446;2023-03-23T02:25:59;98887.14;;;8.47;100.00
70971;BME280;58632;51.718;19.446;2023-03-23T02:31:14;98885.22;;;8.48;100.00
70971;BME280;58632;51.718;19.446;2023-03-23T02:33:46;98884.73;;;8.46;100.00
70971;BME280;58632;51.718;19.446;2023-03-23T02:38:57;98878.44;;;8.37;100.00
70971;BME280;58632;51.718;19.446;2023-03-23T02:41:33;98881.71;;;8.29;100.00
70971;BME280;58632;51.718;19.446;2023-03-23T02:44:01;98880.83;;;8.21;100.00
70971;BME280;58632;51.718;19.446;2023-03-23T02:46:27;98880.35;;;8.13;100.00
70971;BME280;58632;51.718;19.446;2023-03-23T02:48:53;98876.89;;;8.06;100.00
70971;BME280;58632;51.718;19.446;2023-03-23T02:51:21;98874.77;;;8.02;100.00
70971;BME280;58632;51.718;19.446;2023-03-23T02:53:49;98874.71;;;7.99;100.00
70971;BME280;58632;51.718;19.446;2023-03-23T02:56:17;98877.55;;;7.98;100.00
70971;BME280;58632;51.718;19.446;2023-03-23T02:58:44;98880.41;;;7.97;100.00
70971;BME280;58632;51.718;19.446;2023-03-23T03:03:50;98882.33;;;7.98;100.00
70971;BME280;58632;51.718;19.446;2023-03-23T03:08:45;98884.36;;;7.98;100.00
70971;BME280;58632;51.718;19.446;2023-03-23T03:11:13;98877.63;;;7.96;100.00
70971;BME280;58632;51.718;19.446;2023-03-23T03:13:47;98873.09;;;7.92;100.00
70971;BME280;58632;51.718;19.446;2023-03-23T03:21:24;98869.10;;;7.74;100.00
70971;BME280;58632;51.718;19.446;2023-03-23T03:23:52;98857.04;;;7.71;100.00
70971;BME280;58632;51.718;19.446;2023-03-23T03:26:19;98862.97;;;7.67;100.00
70971;BME280;58632;51.718;19.446;2023-03-23T03:28:47;98863.52;;;7.66;100.00
70971;BME280;58632;51.718;19.446;2023-03-23T03:31:14;98865.64;;;7.64;100.00
70971;BME280;58632;51.718;19.446;2023-03-23T03:33:40;98862.46;;;7.64;100.00
70971;BME280;58632;51.718;19.446;2023-03-23T03:36:06;98861.65;;;7.66;100.00
70971;BME280;58632;51.718;19.446;2023-03-23T03:38:40;98858.55;;;7.68;100.00
70971;BME280;58632;51.718;19.446;2023-03-23T03:41:06;98852.84;;;7.69;100.00
70971;BME280;58632;51.718;19.446;2023-03-23T03:43:32;98855.02;;;7.69;100.00
70971;BME280;58632;51.718;19.446;2023-03-23T03:45:58;98855.27;;;7.69;100.00
70971;BME280;58632;51.718;19.446;2023-03-23T03:48:23;98848.25;;;7.69;100.00
70971;BME280;58632;51.718;19.446;2023-03-23T03:50:49;98848.41;;;7.69;100.00
70971;BME280;58632;51.718;19.446;2023-03-23T03:53:17;98851.88;;;7.70;100.00
70971;BME280;58632;51.718;19.446;2023-03-23T03:55:42;98854.90;;;7.74;100.00
70971;BME280;58632;51.718;19.446;2023-03-23T03:58:14;98855.11;;;7.77;100.00
70971;BME280;58632;51.718;19.446;2023-03-23T04:00:39;98857.15;;;7.81;100.00
70971;BME280;58632;51.718;19.446;2023-03-23T04:03:06;98859.51;;;7.87;100.00
70971;BME280;58632;51.718;19.446;2023-03-23T04:05:32;98861.38;;;7.93;100.00
70971;BME280;58632;51.718;19.446;2023-03-23T04:07:58;98855.88;;;7.99;100.00
70971;BME280;58632;51.718;19.446;2023-03-23T04:10:27;98853.38;;;8.04;100.00
70971;BME280;58632;51.718;19.446;2023-03-23T04:12:54;98850.42;;;8.09;100.00
70971;BME280;58632;51.718;19.446;2023-03-23T04:15:20;98848.34;;;8.11;100.00
70971;BME280;58632;51.718;19.446;2023-03-23T04:17:45;98853.05;;;8.12;100.00
70971;BME280;58632;51.718;19.446;2023-03-23T04:20:12;98853.92;;;8.13;100.00
70971;BME280;58632;51.718;19.446;2023-03-23T04:22:45;98858.45;;;8.13;100.00
70971;BME280;58632;51.718;19.446;2023-03-23T04:25:14;98855.91;;;8.12;100.00
70971;BME280;58632;51.718;19.446;2023-03-23T04:27:40;98851.23;;;8.10;100.00
70971;BME280;58632;51.718;19.446;2023-03-23T04:30:09;98850.96;;;8.08;100.00
70971;BME280;58632;51.718;19.446;2023-03-23T04:32:34;98844.65;;;8.06;100.00
70971;BME280;58632;51.718;19.446;2023-03-23T04:35:01;98837.34;;;8.04;100.00
70971;BME280;58632;51.718;19.446;2023-03-23T04:37:27;98841.92;;;8.03;100.00
70971;BME280;58632;51.718;19.446;2023-03-23T04:39:57;98841.64;;;8.03;100.00
70971;BME280;58632;51.718;19.446;2023-03-23T04:42:29;98841.45;;;8.06;100.00
70971;BME280;58632;51.718;19.446;2023-03-23T04:44:55;98833.52;;;8.09;100.00
70971;BME280;58632;51.718;19.446;2023-03-23T04:47:21;98834.95;;;8.14;100.00
70971;BME280;58632;51.718;19.446;2023-03-23T04:49:46;98829.93;;;8.18;100.00
70971;BME280;58632;51.718;19.446;2023-03-23T04:52:12;98826.34;;;8.24;100.00
70971;BME280;58632;51.718;19.446;2023-03-23T04:54:39;98822.65;;;8.32;100.00
70971;BME280;58632;51.718;19.446;2023-03-23T04:57:04;98820.95;;;8.38;100.00
70971;BME280;58632;51.718;19.446;2023-03-23T04:59:30;98817.77;;;8.44;100.00
70971;BME280;58632;51.718;19.446;2023-03-23T05:01:56;98818.17;;;8.50;100.00
70971;BME280;58632;51.718;19.446;2023-03-23T05:04:22;98819.07;;;8.55;100.00
70971;BME280;58632;51.718;19.446;2023-03-23T05:06:47;98822.46;;;8.61;100.00
70971;BME280;58632;51.718;19.446;2023-03-23T05:09:13;98819.95;;;8.64;100.00
70971;BME280;58632;51.718;19.446;2023-03-23T05:11:39;98820.73;;;8.69;100.00
70971;BME280;58632;51.718;19.446;2023-03-23T05:14:04;98818.65;;;8.74;100.00
70971;BME280;58632;51.718;19.446;2023-03-23T05:16:30;98817.16;;;8.79;100.00
70971;BME280;58632;51.718;19.446;2023-03-23T05:18:56;98817.39;;;8.86;100.00
70971;BME280;58632;51.718;19.446;2023-03-23T05:21:24;98816.66;;;8.93;100.00
70971;BME280;58632;51.718;19.446;2023-03-23T05:23:51;98813.74;;;8.99;100.00
70971;BME280;58632;51.718;19.446;2023-03-23T05:26:22;98814.25;;;9.07;100.00
70971;BME280;58632;51.718;19.446;2023-03-23T05:28:54;98816.36;;;9.16;100.00
70971;BME280;58632;51.718;19.446;2023-03-23T05:31:21;98821.84;;;9.23;100.00
70971;BME280;58632;51.718;19.446;2023-03-23T05:33:46;98817.77;;;9.29;100.00
70971;BME280;58632;51.718;19.446;2023-03-23T05:36:12;98816.20;;;9.36;100.00
70971;BME280;58632;51.718;19.446;2023-03-23T05:38:42;98819.55;;;9.38;100.00
70971;BME280;58632;51.718;19.446;2023-03-23T05:41:11;98819.08;;;9.42;100.00
70971;BME280;58632;51.718;19.446;2023-03-23T05:43:37;98817.34;;;9.46;100.00
70971;BME280;58632;51.718;19.446;2023-03-23T05:46:03;98821.29;;;9.49;100.00
70971;BME280;58632;51.718;19.446;2023-03-23T05:48:28;98824.27;;;9.54;100.00
70971;BME280;58632;51.718;19.446;2023-03-23T05:50:54;98823.23;;;9.58;100.00
70971;BME280;58632;51.718;19.446;2023-03-23T05:53:20;98828.19;;;9.62;100.00
70971;BME280;58632;51.718;19.446;2023-03-23T05:55:45;98824.46;;;9.67;100.00
70971;BME280;58632;51.718;19.446;2023-03-23T05:58:12;98826.02;;;9.74;100.00
70971;BME280;58632;51.718;19.446;2023-03-23T06:00:37;98829.33;;;9.82;100.00
70971;BME280;58632;51.718;19.446;2023-03-23T06:03:04;98830.08;;;9.88;100.00
70971;BME280;58632;51.718;19.446;2023-03-23T06:05:30;98831.20;;;9.96;100.00
70971;BME280;58632;51.718;19.446;2023-03-23T06:07:58;98831.70;;;10.02;100.00
70971;BME280;58632;51.718;19.446;2023-03-23T06:10:24;98834.96;;;10.06;100.00
70971;BME280;58632;51.718;19.446;2023-03-23T06:12:49;98831.44;;;10.11;100.00
70971;BME280;58632;51.718;19.446;2023-03-23T06:15:16;98831.11;;;10.15;100.00
70971;BME280;58632;51.718;19.446;2023-03-23T06:17:42;98827.70;;;10.24;100.00
70971;BME280;58632;51.718;19.446;2023-03-23T06:20:08;98824.83;;;10.31;100.00
70971;BME280;58632;51.718;19.446;2023-03-23T06:22:38;98824.01;;;10.40;100.00
70971;BME280;58632;51.718;19.446;2023-03-23T06:25:08;98823.05;;;10.47;100.00
70971;BME280;58632;51.718;19.446;2023-03-23T06:27:33;98818.73;;;10.55;100.00
70971;BME280;58632;51.718;19.446;2023-03-23T06:30:00;98824.36;;;10.62;100.00
70971;BME280;58632;51.718;19.446;2023-03-23T06:32:26;98819.03;;;10.70;100.00
70971;BME280;58632;51.718;19.446;2023-03-23T06:34:53;98818.88;;;10.77;100.00
70971;BME280;58632;51.718;19.446;2023-03-23T06:37:19;98815.45;;;10.89;100.00
70971;BME280;58632;51.718;19.446;2023-03-23T06:39:45;98822.91;;;10.97;100.00
70971;BME280;58632;51.718;19.446;2023-03-23T06:42:11;98825.64;;;11.09;100.00
70971;BME280;58632;51.718;19.446;2023-03-23T06:44:37;98828.45;;;11.23;100.00
70971;BME280;58632;51.718;19.446;2023-03-23T06:47:02;98832.03;;;11.36;100.00
70971;BME280;58632;51.718;19.446;2023-03-23T06:49:28;98830.88;;;11.49;100.00
70971;BME280;58632;51.718;19.446;2023-03-23T06:51:54;98834.29;;;11.62;100.00
70971;BME280;58632;51.718;19.446;2023-03-23T06:54:21;98831.74;;;11.77;100.00
70971;BME280;58632;51.718;19.446;2023-03-23T06:56:47;98835.16;;;11.90;100.00
70971;BME280;58632;51.718;19.446;2023-03-23T06:59:12;98834.73;;;12.04;100.00
70971;BME280;58632;51.718;19.446;2023-03-23T07:01:38;98832.34;;;12.16;100.00
70971;BME280;58632;51.718;19.446;2023-03-23T07:04:04;98833.05;;;12.29;100.00
70971;BME280;58632;51.718;19.446;2023-03-23T07:06:30;98831.84;;;12.45;100.00
70971;BME280;58632;51.718;19.446;2023-03-23T07:08:56;98828.48;;;12.60;100.00
70971;BME280;58632;51.718;19.446;2023-03-23T07:11:21;98828.01;;;12.92;100.00
70971;BME280;58632;51.718;19.446;2023-03-23T07:13:47;98824.45;;;13.14;100.00
70971;BME280;58632;51.718;19.446;2023-03-23T07:16:13;98818.47;;;13.29;100.00
70971;BME280;58632;51.718;19.446;2023-03-23T07:18:39;98822.14;;;13.48;100.00
70971;BME280;58632;51.718;19.446;2023-03-23T07:21:05;98818.98;;;13.82;100.00
70971;BME280;58632;51.718;19.446;2023-03-23T07:23:31;98816.60;;;14.25;100.00
70971;BME280;58632;51.718;19.446;2023-03-23T07:25:56;98815.73;;;14.47;100.00
70971;BME280;58632;51.718;19.446;2023-03-23T07:28:22;98819.20;;;14.56;100.00
70971;BME280;58632;51.718;19.446;2023-03-23T07:30:47;98819.88;;;14.70;100.00
70971;BME280;58632;51.718;19.446;2023-03-23T07:33:13;98826.08;;;14.80;100.00
70971;BME280;58632;51.718;19.446;2023-03-23T07:35:39;98823.46;;;15.04;100.00
70971;BME280;58632;51.718;19.446;2023-03-23T07:38:05;98820.31;;;15.46;100.00
70971;BME280;58632;51.718;19.446;2023-03-23T07:40:32;98815.56;;;15.82;100.00
70971;BME280;58632;51.718;19.446;2023-03-23T07:43:01;98814.84;;;16.07;100.00
70971;BME280;58632;51.718;19.446;2023-03-23T07:45:27;98810.75;;;16.29;100.00
70971;BME280;58632;51.718;19.446;2023-03-23T07:47:52;98806.23;;;16.54;100.00
70971;BME280;58632;51.718;19.446;2023-03-23T07:50:18;98802.20;;;16.77;100.00
70971;BME280;58632;51.718;19.446;2023-03-23T07:52:47;98800.23;;;16.92;100.00
70971;BME280;58632;51.718;19.446;2023-03-23T07:55:13;98796.66;;;17.06;100.00
70971;BME280;58632;51.718;19.446;2023-03-23T07:57:45;98793.41;;;17.08;100.00
70971;BME280;58632;51.718;19.446;2023-03-23T08:00:12;98792.86;;;17.08;100.00
70971;BME280;58632;51.718;19.446;2023-03-23T08:02:40;98789.70;;;17.06;100.00
70971;BME280;58632;51.718;19.446;2023-03-23T08:05:07;98793.73;;;17.04;100.00
70971;BME280;58632;51.718;19.446;2023-03-23T08:07:33;98794.30;;;17.14;100.00
70971;BME280;58632;51.718;19.446;2023-03-23T08:09:59;98795.23;;;17.34;100.00
70971;BME280;58632;51.718;19.446;2023-03-23T08:12:26;98792.41;;;17.44;100.00
70971;BME280;58632;51.718;19.446;2023-03-23T08:14:52;98787.91;;;17.48;100.00
70971;BME280;58632;51.718;19.446;2023-03-23T08:17:19;98789.27;;;17.56;100.00
70971;BME280;58632;51.718;19.446;2023-03-23T08:19:44;98779.72;;;17.72;99.49
70971;BME280;58632;51.718;19.446;2023-03-23T08:22:11;98771.53;;;17.90;99.23
70971;BME280;58632;51.718;19.446;2023-03-23T08:24:36;98775.87;;;18.11;96.20
70971;BME280;58632;51.718;19.446;2023-03-23T08:27:02;98783.85;;;18.29;96.33
70971;BME280;58632;51.718;19.446;2023-03-23T08:29:28;98782.72;;;18.43;95.48
70971;BME280;58632;51.718;19.446;2023-03-23T08:31:53;98777.30;;;18.60;92.37
70971;BME280;58632;51.718;19.446;2023-03-23T08:34:20;98784.86;;;18.75;90.48
70971;BME280;58632;51.718;19.446;2023-03-23T08:36:45;98783.33;;;18.86;90.17
70971;BME280;58632;51.718;19.446;2023-03-23T08:39:11;98784.55;;;19.00;91.12
70971;BME280;58632;51.718;19.446;2023-03-23T08:41:39;98786.48;;;19.12;86.89
70971;BME280;58632;51.718;19.446;2023-03-23T08:44:05;98784.24;;;19.13;83.65
70971;BME280;58632;51.718;19.446;2023-03-23T08:46:31;98783.63;;;19.12;83.73
70971;BME280;58632;51.718;19.446;2023-03-23T08:48:56;98784.18;;;19.09;80.99
70971;BME280;58632;51.718;19.446;2023-03-23T08:51:22;98780.36;;;18.97;77.69
70971;BME280;58632;51.718;19.446;2023-03-23T08:53:47;98775.34;;;18.82;77.94
70971;BME280;58632;51.718;19.446;2023-03-23T08:56:13;98773.61;;;18.75;76.48
70971;BME280;58632;51.718;19.446;2023-03-23T08:58:39;98770.23;;;18.64;75.89
70971;BME280;58632;51.718;19.446;2023-03-23T09:01:05;98761.54;;;18.56;77.51
70971;BME280;58632;51.718;19.446;2023-03-23T09:03:32;98762.02;;;18.57;81.55
70971;BME280;58632;51.718;19.446;2023-03-23T09:05:58;98762.88;;;18.59;78.15
70971;BME280;58632;51.718;19.446;2023-03-23T09:08:25;98761.34;;;18.69;80.41
70971;BME280;58632;51.718;19.446;2023-03-23T09:10:51;98756.31;;;18.88;79.75
70971;BME280;58632;51.718;19.446;2023-03-23T09:13:17;98751.21;;;19.09;74.43
70971;BME280;58632;51.718;19.446;2023-03-23T09:15:43;98747.14;;;19.27;72.90
70971;BME280;58632;51.718;19.446;2023-03-23T09:18:08;98751.78;;;19.46;72.98
70971;BME280;58632;51.718;19.446;2023-03-23T09:20:34;98748.11;;;19.61;68.70
70971;BME280;58632;51.718;19.446;2023-03-23T09:23:02;98750.81;;;19.74;63.43
70971;BME280;58632;51.718;19.446;2023-03-23T09:25:28;98753.86;;;19.81;63.08
70971;BME280;58632;51.718;19.446;2023-03-23T09:27:55;98751.09;;;19.90;63.11
70971;BME280;58632;51.718;19.446;2023-03-23T09:30:32;98747.86;;;20.05;61.78
70971;BME280;58632;51.718;19.446;2023-03-23T09:33:02;98748.75;;;20.19;60.49
70971;BME280;58632;51.718;19.446;2023-03-23T09:35:28;98747.44;;;20.24;60.72
70971;BME280;58632;51.718;19.446;2023-03-23T09:37:54;98739.85;;;20.21;60.82
70971;BME280;58632;51.718;19.446;2023-03-23T09:40:24;98733.10;;;20.20;62.54
70971;BME280;58632;51.718;19.446;2023-03-23T09:45:41;98731.44;;;20.28;60.46
70971;BME280;58632;51.718;19.446;2023-03-23T09:50:57;98724.06;;;20.19;55.19
70971;BME280;58632;51.718;19.446;2023-03-23T09:53:37;98721.59;;;20.13;53.17
70971;BME280;58632;51.718;19.446;2023-03-23T09:56:08;98722.78;;;20.04;52.65
70971;BME280;58632;51.718;19.446;2023-03-23T09:58:51;98725.27;;;20.01;55.93
70971;BME280;58632;51.718;19.446;2023-03-23T10:01:23;98722.98;;;20.08;54.97
70971;BME280;58632;51.718;19.446;2023-03-23T10:03:52;98720.14;;;20.14;53.40
70971;BME280;58632;51.718;19.446;2023-03-23T10:06:21;98719.54;;;20.19;51.34
70971;BME280;58632;51.718;19.446;2023-03-23T10:08:49;98720.70;;;20.22;49.83
70971;BME280;58632;51.718;19.446;2023-03-23T10:16:08;98716.49;;;20.51;51.31
70971;BME280;58632;51.718;19.446;2023-03-23T10:18:41;98714.99;;;20.58;51.51
70971;BME280;58632;51.718;19.446;2023-03-23T10:21:11;98711.84;;;20.65;52.44
70971;BME280;58632;51.718;19.446;2023-03-23T10:28:43;98709.50;;;20.66;50.53
70971;BME280;58632;51.718;19.446;2023-03-23T10:31:29;98702.43;;;20.60;48.50
70971;BME280;58632;51.718;19.446;2023-03-23T10:33:56;98702.93;;;20.58;49.90
70971;BME280;58632;51.718;19.446;2023-03-23T10:36:27;98700.91;;;20.60;50.11
70971;BME280;58632;51.718;19.446;2023-03-23T10:39:02;98700.40;;;20.64;47.73
70971;BME280;58632;51.718;19.446;2023-03-23T10:41:30;98695.23;;;20.71;51.48
70971;BME280;58632;51.718;19.446;2023-03-23T10:43:56;98697.92;;;21.01;52.93
70971;BME280;58632;51.718;19.446;2023-03-23T10:46:27;98700.86;;;21.19;49.05
70971;BME280;58632;51.718;19.446;2023-03-23T10:48:54;98698.08;;;21.35;48.64
70971;BME280;58632;51.718;19.446;2023-03-23T10:51:32;98695.13;;;21.47;48.18
70971;BME280;58632;51.718;19.446;2023-03-23T10:54:00;98696.52;;;21.55;48.14
70971;BME280;58632;51.718;19.446;2023-03-23T10:59:17;98693.45;;;21.53;47.75
70971;BME280;58632;51.718;19.446;2023-03-23T11:01:45;98696.66;;;21.56;46.34
70971;BME280;58632;51.718;19.446;2023-03-23T11:04:13;98699.05;;;21.66;46.29
70971;BME280;58632;51.718;19.446;2023-03-23T11:06:43;98691.44;;;21.73;45.35
70971;BME280;58632;51.718;19.446;2023-03-23T11:11:40;98686.96;;;21.79;44.38
70971;BME280;58632;51.718;19.446;2023-03-23T11:14:16;98686.38;;;21.71;46.24
70971;BME280;58632;51.718;19.446;2023-03-23T11:16:53;98687.44;;;21.74;44.95
70971;BME280;58632;51.718;19.446;2023-03-23T11:19:27;98691.90;;;21.74;44.50
70971;BME280;58632;51.718;19.446;2023-03-23T11:22:36;98698.58;;;21.70;44.43
70971;BME280;58632;51.718;19.446;2023-03-23T11:24:44;98700.76;;;21.58;45.63
70971;BME280;58632;51.718;19.446;2023-03-23T11:27:10;98710.04;;;21.50;45.23
70971;BME280;58632;51.718;19.446;2023-03-23T11:29:42;98716.02;;;21.45;44.81
70971;BME280;58632;51.718;19.446;2023-03-23T11:32:12;98712.67;;;21.39;45.27
70971;BME280;58632;51.718;19.446;2023-03-23T11:34:41;98709.38;;;21.34;45.59
70971;BME280;58632;51.718;19.446;2023-03-23T11:37:08;98698.05;;;21.26;45.75
70971;BME280;58632;51.718;19.446;2023-03-23T11:39:54;98709.03;;;21.15;46.00
70971;BME280;58632;51.718;19.446;2023-03-23T11:42:21;98701.34;;;20.96;46.31
70971;BME280;58632;51.718;19.446;2023-03-23T11:44:47;98701.50;;;20.84;48.32
70971;BME280;58632;51.718;19.446;2023-03-23T11:47:22;98698.92;;;20.80;49.12
70971;BME280;58632;51.718;19.446;2023-03-23T11:52:24;98692.63;;;20.53;49.34
70971;BME280;58632;51.718;19.446;2023-03-23T11:54:56;98703.95;;;20.43;50.59
70971;BME280;58632;51.718;19.446;2023-03-23T11:57:23;98707.19;;;20.32;50.09
70971;BME280;58632;51.718;19.446;2023-03-23T11:59:49;98711.88;;;20.22;50.17
70971;BME280;58632;51.718;19.446;2023-03-23T12:04:47;98709.23;;;20.24;51.35
70971;BME280;58632;51.718;19.446;2023-03-23T12:15:10;98711.30;;;20.09;51.55
70971;BME280;58632;51.718;19.446;2023-03-23T12:20:32;98714.35;;;19.67;51.96
70971;BME280;58632;51.718;19.446;2023-03-23T12:28:11;98719.77;;;19.19;54.12
70971;BME280;58632;51.718;19.446;2023-03-23T12:36:09;98725.32;;;19.04;56.75
70971;BME280;58632;51.718;19.446;2023-03-23T12:41:35;98724.95;;;18.84;58.02
70971;BME280;58632;51.718;19.446;2023-03-23T12:44:07;98727.90;;;18.79;58.79
70971;BME280;58632;51.718;19.446;2023-03-23T12:54:36;98723.86;;;18.73;60.20
70971;BME280;58632;51.718;19.446;2023-03-23T12:57:14;98720.45;;;18.75;60.74
70971;BME280;58632;51.718;19.446;2023-03-23T13:02:32;98715.65;;;19.03;61.52
70971;BME280;58632;51.718;19.446;2023-03-23T13:07:26;98714.73;;;19.25;61.21
70971;BME280;58632;51.718;19.446;2023-03-23T13:09:55;98710.02;;;19.30;60.55
70971;BME280;58632;51.718;19.446;2023-03-23T13:12:23;98705.88;;;19.32;62.61
70971;BME280;58632;51.718;19.446;2023-03-23T13:14:53;98700.41;;;19.45;61.04
70971;BME280;58632;51.718;19.446;2023-03-23T13:22:45;98707.55;;;19.64;57.14
70971;BME280;58632;51.718;19.446;2023-03-23T13:27:59;98710.60;;;19.49;57.70
70971;BME280;58632;51.718;19.446;2023-03-23T13:30:26;98712.75;;;19.37;59.27
70971;BME280;58632;51.718;19.446;2023-03-23T13:33:01;98714.14;;;19.31;58.73
70971;BME280;58632;51.718;19.446;2023-03-23T13:35:32;98717.48;;;19.17;57.48
70971;BME280;58632;51.718;19.446;2023-03-23T13:37:58;98722.45;;;19.07;58.65
70971;BME280;58632;51.718;19.446;2023-03-23T13:40:28;98720.92;;;18.96;57.24
70971;BME280;58632;51.718;19.446;2023-03-23T13:42:55;98720.21;;;18.77;55.62
70971;BME280;58632;51.718;19.446;2023-03-23T13:48:16;98730.29;;;18.45;58.62
70971;BME280;58632;51.718;19.446;2023-03-23T13:51:23;98729.57;;;18.17;57.93
70971;BME280;58632;51.718;19.446;2023-03-23T13:56:13;98731.16;;;17.78;62.20
70971;BME280;58632;51.718;19.446;2023-03-23T13:58:49;98731.79;;;17.66;64.49
70971;BME280;58632;51.718;19.446;2023-03-23T14:01:16;98732.02;;;17.55;65.78
70971;BME280;58632;51.718;19.446;2023-03-23T14:03:47;98732.64;;;17.48;66.73
70971;BME280;58632;51.718;19.446;2023-03-23T14:06:16;98738.41;;;17.44;67.56
70971;BME280;58632;51.718;19.446;2023-03-23T14:08:44;98738.64;;;17.39;68.90
70971;BME280;58632;51.718;19.446;2023-03-23T14:11:11;98738.25;;;17.39;70.07
70971;BME280;58632;51.718;19.446;2023-03-23T14:13:43;98741.73;;;17.43;70.94
70971;BME280;58632;51.718;19.446;2023-03-23T14:16:20;98734.39;;;17.51;71.25
70971;BME280;58632;51.718;19.446;2023-03-23T14:18:51;98738.75;;;17.62;71.15
70971;BME280;58632;51.718;19.446;2023-03-23T14:21:17;98744.37;;;17.68;71.41
70971;BME280;58632;51.718;19.446;2023-03-23T14:23:46;98745.95;;;17.75;72.12
70971;BME280;58632;51.718;19.446;2023-03-23T14:26:12;98744.54;;;17.80;70.64
70971;BME280;58632;51.718;19.446;2023-03-23T14:28:41;98743.75;;;17.80;69.88
70971;BME280;58632;51.718;19.446;2023-03-23T14:31:24;98742.86;;;17.78;71.38